sensor_id;sensor_type;location;lat;lon;timestamp;temperature;humidity
23731;DHT22;12046;44.702;10.622;2022-07-05T00:00:19;24.50;97.10
23731;DHT22;12046;44.702;10.622;2022-07-05T00:02:45;24.50;97.10
23731;DHT22;12046;44.702;10.622;2022-07-05T00:05:11;24.50;97.10
23731;DHT22;12046;44.702;10.622;2022-07-05T00:07:37;24.50;97.10
23731;DHT22;12046;44.702;10.622;2022-07-05T00:10:04;24.50;97.10
23731;DHT22;12046;44.702;10.622;2022-07-05T00:12:32;24.40;97.20
23731;DHT22;12046;44.702;10.622;2022-07-05T00:15:00;24.40;97.30
23731;DHT22;12046;44.702;10.622;2022-07-05T00:17:26;24.40;97.30
23731;DHT22;12046;44.702;10.622;2022-07-05T00:19:52;24.40;97.20
23731;DHT22;12046;44.702;10.622;2022-07-05T00:22:18;24.40;97.20
23731;DHT22;12046;44.702;10.622;2022-07-05T00:24:44;24.40;97.10
23731;DHT22;12046;44.702;10.622;2022-07-05T00:27:10;24.30;97.20
23731;DHT22;12046;44.702;10.622;2022-07-05T00:29:36;24.30;97.40
23731;DHT22;12046;44.702;10.622;2022-07-05T00:32:04;24.30;97.40
23731;DHT22;12046;44.702;10.622;2022-07-05T00:34:30;24.20;97.40
23731;DHT22;12046;44.702;10.622;2022-07-05T00:36:56;24.20;97.40
23731;DHT22;12046;44.702;10.622;2022-07-05T00:39:22;24.20;97.30
23731;DHT22;12046;44.702;10.622;2022-07-05T00:41:48;24.20;97.60
23731;DHT22;12046;44.702;10.622;2022-07-05T00:44:14;24.20;97.40
23731;DHT22;12046;44.702;10.622;2022-07-05T00:46:45;24.20;97.50
23731;DHT22;12046;44.702;10.622;2022-07-05T00:49:11;24.20;97.50
23731;DHT22;12046;44.702;10.622;2022-07-05T00:51:37;24.10;97.60
23731;DHT22;12046;44.702;10.622;2022-07-05T00:54:06;24.10;97.50
23731;DHT22;12046;44.702;10.622;2022-07-05T00:56:32;24.00;97.90
23731;DHT22;12046;44.702;10.622;2022-07-05T00:59:00;24.00;98.00
23731;DHT22;12046;44.702;10.622;2022-07-05T01:01:27;23.90;98.00
23731;DHT22;12046;44.702;10.622;2022-07-05T01:03:53;23.90;98.10
23731;DHT22;12046;44.702;10.622;2022-07-05T01:06:19;23.70;98.30
23731;DHT22;12046;44.702;10.622;2022-07-05T01:08:46;23.70;98.50
23731;DHT22;12046;44.702;10.622;2022-07-05T01:11:13;23.60;98.50
23731;DHT22;12046;44.702;10.622;2022-07-05T01:13:39;23.50;98.50
23731;DHT22;12046;44.702;10.622;2022-07-05T01:16:06;23.40;98.40
23731;DHT22;12046;44.702;10.622;2022-07-05T01:18:32;23.30;98.30
23731;DHT22;12046;44.702;10.622;2022-07-05T01:20:59;23.30;98.30
23731;DHT22;12046;44.702;10.622;2022-07-05T01:23:27;23.30;97.80
23731;DHT22;12046;44.702;10.622;2022-07-05T01:25:53;23.30;97.70
23731;DHT22;12046;44.702;10.622;2022-07-05T01:28:20;23.20;97.40
23731;DHT22;12046;44.702;10.622;2022-07-05T01:30:47;23.20;97.40
23731;DHT22;12046;44.702;10.622;2022-07-05T01:33:13;23.20;97.30
23731;DHT22;12046;44.702;10.622;2022-07-05T01:35:39;23.10;97.10
23731;DHT22;12046;44.702;10.622;2022-07-05T01:38:06;23.10;97.00
23731;DHT22;12046;44.702;10.622;2022-07-05T01:40:32;23.10;97.00
23731;DHT22;12046;44.702;10.622;2022-07-05T01:42:58;23.10;97.10
23731;DHT22;12046;44.702;10.622;2022-07-05T01:45:24;23.10;97.00
23731;DHT22;12046;44.702;10.622;2022-07-05T01:48:14;23.10;97.00
23731;DHT22;12046;44.702;10.622;2022-07-05T01:50:53;23.00;96.90
23731;DHT22;12046;44.702;10.622;2022-07-05T01:53:31;23.00;97.00
23731;DHT22;12046;44.702;10.622;2022-07-05T01:56:00;23.00;97.20
23731;DHT22;12046;44.702;10.622;2022-07-05T01:58:27;23.00;97.40
23731;DHT22;12046;44.702;10.622;2022-07-05T02:00:54;23.00;97.50
23731;DHT22;12046;44.702;10.622;2022-07-05T02:03:21;22.90;97.50
23731;DHT22;12046;44.702;10.622;2022-07-05T02:05:48;23.00;97.70
23731;DHT22;12046;44.702;10.622;2022-07-05T02:08:16;23.00;97.90
23731;DHT22;12046;44.702;10.622;2022-07-05T02:10:42;23.00;98.10
23731;DHT22;12046;44.702;10.622;2022-07-05T02:13:09;22.90;98.30
23731;DHT22;12046;44.702;10.622;2022-07-05T02:15:37;22.90;98.50
23731;DHT22;12046;44.702;10.622;2022-07-05T02:18:04;22.90;98.90
23731;DHT22;12046;44.702;10.622;2022-07-05T02:20:32;22.70;99.00
23731;DHT22;12046;44.702;10.622;2022-07-05T02:22:59;22.70;99.30
23731;DHT22;12046;44.702;10.622;2022-07-05T02:25:25;22.70;99.60
23731;DHT22;12046;44.702;10.622;2022-07-05T02:27:52;22.60;99.80
23731;DHT22;12046;44.702;10.622;2022-07-05T02:30:19;22.60;99.90
23731;DHT22;12046;44.702;10.622;2022-07-05T02:32:45;22.60;99.90
23731;DHT22;12046;44.702;10.622;2022-07-05T02:35:12;22.50;99.90
23731;DHT22;12046;44.702;10.622;2022-07-05T02:37:39;22.60;99.90
23731;DHT22;12046;44.702;10.622;2022-07-05T02:40:07;22.60;99.90
23731;DHT22;12046;44.702;10.622;2022-07-05T02:42:34;22.60;99.90
23731;DHT22;12046;44.702;10.622;2022-07-05T02:45:00;22.70;99.90
23731;DHT22;12046;44.702;10.622;2022-07-05T02:47:29;22.70;99.90
23731;DHT22;12046;44.702;10.622;2022-07-05T02:50:06;22.70;99.90
23731;DHT22;12046;44.702;10.622;2022-07-05T02:52:32;22.70;99.90
23731;DHT22;12046;44.702;10.622;2022-07-05T02:54:58;22.70;99.90
23731;DHT22;12046;44.702;10.622;2022-07-05T02:57:24;22.70;99.90
23731;DHT22;12046;44.702;10.622;2022-07-05T02:59:53;22.70;99.90
23731;DHT22;12046;44.702;10.622;2022-07-05T03:02:20;22.70;99.90
23731;DHT22;12046;44.702;10.622;2022-07-05T03:04:47;22.70;99.90
23731;DHT22;12046;44.702;10.622;2022-07-05T03:07:13;22.70;99.90
23731;DHT22;12046;44.702;10.622;2022-07-05T03:09:39;22.70;99.90
23731;DHT22;12046;44.702;10.622;2022-07-05T03:12:05;22.80;99.90
23731;DHT22;12046;44.702;10.622;2022-07-05T03:14:31;22.80;99.90
23731;DHT22;12046;44.702;10.622;2022-07-05T03:16:57;22.80;99.90
23731;DHT22;12046;44.702;10.622;2022-07-05T03:19:23;22.80;99.90
23731;DHT22;12046;44.702;10.622;2022-07-05T03:21:49;22.80;99.90
23731;DHT22;12046;44.702;10.622;2022-07-05T03:24:15;22.80;99.90
23731;DHT22;12046;44.702;10.622;2022-07-05T03:26:40;22.80;99.90
23731;DHT22;12046;44.702;10.622;2022-07-05T03:29:06;22.80;99.90
23731;DHT22;12046;44.702;10.622;2022-07-05T03:31:32;22.70;99.90
23731;DHT22;12046;44.702;10.622;2022-07-05T03:33:58;22.70;99.90
23731;DHT22;12046;44.702;10.622;2022-07-05T03:36:24;22.60;99.90
23731;DHT22;12046;44.702;10.622;2022-07-05T03:38:50;22.50;99.90
23731;DHT22;12046;44.702;10.622;2022-07-05T03:41:16;22.60;99.90
23731;DHT22;12046;44.702;10.622;2022-07-05T03:43:42;22.50;99.90
23731;DHT22;12046;44.702;10.622;2022-07-05T03:46:08;22.50;99.90
23731;DHT22;12046;44.702;10.622;2022-07-05T03:48:34;22.50;99.90
23731;DHT22;12046;44.702;10.622;2022-07-05T03:51:00;22.60;99.90
23731;DHT22;12046;44.702;10.622;2022-07-05T03:53:26;22.60;99.90
23731;DHT22;12046;44.702;10.622;2022-07-05T03:55:52;22.60;99.90
23731;DHT22;12046;44.702;10.622;2022-07-05T03:58:18;22.60;99.90
23731;DHT22;12046;44.702;10.622;2022-07-05T04:00:44;22.60;99.90
23731;DHT22;12046;44.702;10.622;2022-07-05T04:03:10;22.60;99.70
23731;DHT22;12046;44.702;10.622;2022-07-05T04:05:35;22.70;99.80
23731;DHT22;12046;44.702;10.622;2022-07-05T04:08:01;22.70;99.90
23731;DHT22;12046;44.702;10.622;2022-07-05T04:10:27;22.70;99.70
23731;DHT22;12046;44.702;10.622;2022-07-05T04:12:53;22.70;99.70
23731;DHT22;12046;44.702;10.622;2022-07-05T04:15:20;22.70;99.70
23731;DHT22;12046;44.702;10.622;2022-07-05T04:17:49;22.70;99.70
23731;DHT22;12046;44.702;10.622;2022-07-05T04:20:16;22.70;99.60
23731;DHT22;12046;44.702;10.622;2022-07-05T04:22:42;22.80;99.70
23731;DHT22;12046;44.702;10.622;2022-07-05T04:25:09;22.80;99.70
23731;DHT22;12046;44.702;10.622;2022-07-05T04:27:52;22.80;99.70
23731;DHT22;12046;44.702;10.622;2022-07-05T04:30:23;22.90;99.60
23731;DHT22;12046;44.702;10.622;2022-07-05T04:32:49;22.90;99.60
23731;DHT22;12046;44.702;10.622;2022-07-05T04:35:16;23.00;99.50
23731;DHT22;12046;44.702;10.622;2022-07-05T04:37:42;22.90;99.40
23731;DHT22;12046;44.702;10.622;2022-07-05T04:40:10;22.90;99.50
23731;DHT22;12046;44.702;10.622;2022-07-05T04:42:36;22.90;99.30
23731;DHT22;12046;44.702;10.622;2022-07-05T04:45:03;22.90;99.30
23731;DHT22;12046;44.702;10.622;2022-07-05T04:47:30;22.90;99.40
23731;DHT22;12046;44.702;10.622;2022-07-05T04:49:57;22.90;99.50
23731;DHT22;12046;44.702;10.622;2022-07-05T04:52:24;23.00;99.40
23731;DHT22;12046;44.702;10.622;2022-07-05T04:54:51;23.10;99.40
23731;DHT22;12046;44.702;10.622;2022-07-05T04:57:17;23.10;99.20
23731;DHT22;12046;44.702;10.622;2022-07-05T04:59:43;23.20;98.90
23731;DHT22;12046;44.702;10.622;2022-07-05T05:02:09;23.30;98.90
23731;DHT22;12046;44.702;10.622;2022-07-05T05:04:36;23.40;98.80
23731;DHT22;12046;44.702;10.622;2022-07-05T05:07:02;23.50;98.90
23731;DHT22;12046;44.702;10.622;2022-07-05T05:09:28;23.60;98.80
23731;DHT22;12046;44.702;10.622;2022-07-05T05:11:54;23.70;98.50
23731;DHT22;12046;44.702;10.622;2022-07-05T05:14:20;23.90;98.20
23731;DHT22;12046;44.702;10.622;2022-07-05T05:16:46;23.90;98.20
23731;DHT22;12046;44.702;10.622;2022-07-05T05:19:12;24.00;98.00
23731;DHT22;12046;44.702;10.622;2022-07-05T05:21:38;24.20;97.70
23731;DHT22;12046;44.702;10.622;2022-07-05T05:24:06;24.20;97.50
23731;DHT22;12046;44.702;10.622;2022-07-05T05:26:32;24.30;97.40
23731;DHT22;12046;44.702;10.622;2022-07-05T05:28:58;24.40;97.50
23731;DHT22;12046;44.702;10.622;2022-07-05T05:31:24;24.50;97.00
23731;DHT22;12046;44.702;10.622;2022-07-05T05:33:50;24.60;96.80
23731;DHT22;12046;44.702;10.622;2022-07-05T05:36:17;24.70;96.90
23731;DHT22;12046;44.702;10.622;2022-07-05T05:38:42;24.70;96.60
23731;DHT22;12046;44.702;10.622;2022-07-05T05:41:08;24.80;96.50
23731;DHT22;12046;44.702;10.622;2022-07-05T05:43:34;24.80;96.60
23731;DHT22;12046;44.702;10.622;2022-07-05T05:46:00;24.90;96.80
23731;DHT22;12046;44.702;10.622;2022-07-05T05:48:26;24.90;96.80
23731;DHT22;12046;44.702;10.622;2022-07-05T05:50:52;25.10;96.80
23731;DHT22;12046;44.702;10.622;2022-07-05T05:53:18;25.20;96.60
23731;DHT22;12046;44.702;10.622;2022-07-05T05:55:44;25.30;96.60
23731;DHT22;12046;44.702;10.622;2022-07-05T05:58:31;25.40;96.60
23731;DHT22;12046;44.702;10.622;2022-07-05T06:00:58;25.60;96.80
23731;DHT22;12046;44.702;10.622;2022-07-05T06:03:26;25.70;97.30
23731;DHT22;12046;44.702;10.622;2022-07-05T06:05:55;25.80;97.70
23731;DHT22;12046;44.702;10.622;2022-07-05T06:08:21;25.80;97.70
23731;DHT22;12046;44.702;10.622;2022-07-05T06:10:47;25.70;97.10
23731;DHT22;12046;44.702;10.622;2022-07-05T06:13:14;25.70;97.00
23731;DHT22;12046;44.702;10.622;2022-07-05T06:15:41;25.60;96.80
23731;DHT22;12046;44.702;10.622;2022-07-05T06:18:09;25.60;96.30
23731;DHT22;12046;44.702;10.622;2022-07-05T06:20:37;25.50;96.10
23731;DHT22;12046;44.702;10.622;2022-07-05T06:23:05;25.40;96.20
23731;DHT22;12046;44.702;10.622;2022-07-05T06:25:32;25.40;96.50
23731;DHT22;12046;44.702;10.622;2022-07-05T06:28:00;25.30;96.00
23731;DHT22;12046;44.702;10.622;2022-07-05T06:30:28;25.20;95.60
23731;DHT22;12046;44.702;10.622;2022-07-05T06:32:55;25.10;95.70
23731;DHT22;12046;44.702;10.622;2022-07-05T06:35:21;25.10;95.80
23731;DHT22;12046;44.702;10.622;2022-07-05T06:37:48;25.10;95.60
23731;DHT22;12046;44.702;10.622;2022-07-05T06:40:23;25.20;95.90
23731;DHT22;12046;44.702;10.622;2022-07-05T06:42:50;25.40;95.50
23731;DHT22;12046;44.702;10.622;2022-07-05T06:45:16;25.50;95.10
23731;DHT22;12046;44.702;10.622;2022-07-05T06:47:43;25.70;95.00
23731;DHT22;12046;44.702;10.622;2022-07-05T06:50:09;25.70;95.10
23731;DHT22;12046;44.702;10.622;2022-07-05T06:52:36;25.90;95.00
23731;DHT22;12046;44.702;10.622;2022-07-05T06:55:02;26.10;94.40
23731;DHT22;12046;44.702;10.622;2022-07-05T06:57:29;26.20;94.50
23731;DHT22;12046;44.702;10.622;2022-07-05T06:59:55;26.30;94.50
23731;DHT22;12046;44.702;10.622;2022-07-05T07:02:21;26.40;94.60
23731;DHT22;12046;44.702;10.622;2022-07-05T07:04:48;26.50;94.20
23731;DHT22;12046;44.702;10.622;2022-07-05T07:07:14;26.60;94.10
23731;DHT22;12046;44.702;10.622;2022-07-05T07:10:00;26.70;93.90
23731;DHT22;12046;44.702;10.622;2022-07-05T07:12:27;26.80;94.00
23731;DHT22;12046;44.702;10.622;2022-07-05T07:14:53;26.90;93.90
23731;DHT22;12046;44.702;10.622;2022-07-05T07:17:19;27.00;93.50
23731;DHT22;12046;44.702;10.622;2022-07-05T07:19:45;27.10;93.40
23731;DHT22;12046;44.702;10.622;2022-07-05T07:22:11;27.10;93.40
23731;DHT22;12046;44.702;10.622;2022-07-05T07:24:37;27.20;93.20
23731;DHT22;12046;44.702;10.622;2022-07-05T07:27:03;27.20;93.30
23731;DHT22;12046;44.702;10.622;2022-07-05T07:29:34;27.20;93.70
23731;DHT22;12046;44.702;10.622;2022-07-05T07:32:01;27.30;93.50
23731;DHT22;12046;44.702;10.622;2022-07-05T07:34:28;27.30;93.50
23731;DHT22;12046;44.702;10.622;2022-07-05T07:36:55;27.40;93.60
23731;DHT22;12046;44.702;10.622;2022-07-05T07:39:22;27.40;93.40
23731;DHT22;12046;44.702;10.622;2022-07-05T07:41:48;27.40;93.50
23731;DHT22;12046;44.702;10.622;2022-07-05T07:44:14;27.50;93.60
23731;DHT22;12046;44.702;10.622;2022-07-05T07:46:41;27.50;93.60
23731;DHT22;12046;44.702;10.622;2022-07-05T07:49:07;27.50;93.40
23731;DHT22;12046;44.702;10.622;2022-07-05T07:51:34;27.60;93.30
23731;DHT22;12046;44.702;10.622;2022-07-05T07:54:00;27.80;92.90
23731;DHT22;12046;44.702;10.622;2022-07-05T07:56:26;27.70;92.90
23731;DHT22;12046;44.702;10.622;2022-07-05T07:58:53;27.80;93.10
23731;DHT22;12046;44.702;10.622;2022-07-05T08:01:20;27.90;93.50
23731;DHT22;12046;44.702;10.622;2022-07-05T08:03:46;28.00;93.30
23731;DHT22;12046;44.702;10.622;2022-07-05T08:06:12;28.10;92.70
23731;DHT22;12046;44.702;10.622;2022-07-05T08:08:40;28.10;92.30
23731;DHT22;12046;44.702;10.622;2022-07-05T08:11:08;28.20;92.20
23731;DHT22;12046;44.702;10.622;2022-07-05T08:13:35;28.20;92.10
23731;DHT22;12046;44.702;10.622;2022-07-05T08:16:02;28.30;92.50
23731;DHT22;12046;44.702;10.622;2022-07-05T08:18:28;28.40;92.60
23731;DHT22;12046;44.702;10.622;2022-07-05T08:21:13;28.40;92.50
23731;DHT22;12046;44.702;10.622;2022-07-05T08:23:58;28.60;92.60
23731;DHT22;12046;44.702;10.622;2022-07-05T08:26:26;28.60;92.60
23731;DHT22;12046;44.702;10.622;2022-07-05T08:28:52;28.70;92.60
23731;DHT22;12046;44.702;10.622;2022-07-05T08:31:18;28.80;92.40
23731;DHT22;12046;44.702;10.622;2022-07-05T08:33:45;28.90;92.20
23731;DHT22;12046;44.702;10.622;2022-07-05T08:36:14;29.00;92.60
23731;DHT22;12046;44.702;10.622;2022-07-05T08:38:40;29.10;92.50
23731;DHT22;12046;44.702;10.622;2022-07-05T08:41:08;29.20;92.30
23731;DHT22;12046;44.702;10.622;2022-07-05T08:43:37;29.20;92.20
23731;DHT22;12046;44.702;10.622;2022-07-05T08:46:05;29.30;92.30
23731;DHT22;12046;44.702;10.622;2022-07-05T08:48:36;29.30;92.00
23731;DHT22;12046;44.702;10.622;2022-07-05T08:51:27;29.30;91.40
23731;DHT22;12046;44.702;10.622;2022-07-05T08:53:54;29.30;91.60
23731;DHT22;12046;44.702;10.622;2022-07-05T08:56:24;29.40;92.20
23731;DHT22;12046;44.702;10.622;2022-07-05T08:58:50;29.40;91.70
23731;DHT22;12046;44.702;10.622;2022-07-05T09:01:17;29.50;91.00
23731;DHT22;12046;44.702;10.622;2022-07-05T09:03:48;29.60;91.70
23731;DHT22;12046;44.702;10.622;2022-07-05T09:06:23;29.70;91.00
23731;DHT22;12046;44.702;10.622;2022-07-05T09:08:54;29.90;91.30
23731;DHT22;12046;44.702;10.622;2022-07-05T09:11:25;29.90;91.20
23731;DHT22;12046;44.702;10.622;2022-07-05T09:13:54;30.00;90.70
23731;DHT22;12046;44.702;10.622;2022-07-05T09:16:20;30.00;91.30
23731;DHT22;12046;44.702;10.622;2022-07-05T09:18:48;30.10;91.20
23731;DHT22;12046;44.702;10.622;2022-07-05T09:21:25;30.20;90.80
23731;DHT22;12046;44.702;10.622;2022-07-05T09:23:57;30.20;90.70
23731;DHT22;12046;44.702;10.622;2022-07-05T09:26:40;30.20;91.10
23731;DHT22;12046;44.702;10.622;2022-07-05T09:29:08;30.30;90.70
23731;DHT22;12046;44.702;10.622;2022-07-05T09:31:36;30.40;90.80
23731;DHT22;12046;44.702;10.622;2022-07-05T09:34:22;30.40;90.80
23731;DHT22;12046;44.702;10.622;2022-07-05T09:37:08;30.50;90.10
23731;DHT22;12046;44.702;10.622;2022-07-05T09:39:54;30.60;89.50
23731;DHT22;12046;44.702;10.622;2022-07-05T09:42:23;30.60;89.30
23731;DHT22;12046;44.702;10.622;2022-07-05T09:44:52;30.70;89.80
23731;DHT22;12046;44.702;10.622;2022-07-05T09:47:23;30.70;88.50
23731;DHT22;12046;44.702;10.622;2022-07-05T09:49:53;30.80;87.00
23731;DHT22;12046;44.702;10.622;2022-07-05T09:52:38;30.90;87.20
23731;DHT22;12046;44.702;10.622;2022-07-05T09:55:06;31.00;87.50
23731;DHT22;12046;44.702;10.622;2022-07-05T09:57:34;31.10;85.30
23731;DHT22;12046;44.702;10.622;2022-07-05T10:00:11;31.10;86.70
23731;DHT22;12046;44.702;10.622;2022-07-05T10:02:56;31.20;84.70
23731;DHT22;12046;44.702;10.622;2022-07-05T10:05:30;31.10;85.20
23731;DHT22;12046;44.702;10.622;2022-07-05T10:07:57;31.10;88.00
23731;DHT22;12046;44.702;10.622;2022-07-05T10:10:33;31.20;87.60
23731;DHT22;12046;44.702;10.622;2022-07-05T10:13:01;31.20;86.70
23731;DHT22;12046;44.702;10.622;2022-07-05T10:15:32;31.20;88.30
23731;DHT22;12046;44.702;10.622;2022-07-05T10:18:03;31.20;87.80
23731;DHT22;12046;44.702;10.622;2022-07-05T10:20:43;31.40;87.70
23731;DHT22;12046;44.702;10.622;2022-07-05T10:23:14;31.50;86.50
23731;DHT22;12046;44.702;10.622;2022-07-05T10:25:45;31.70;84.40
23731;DHT22;12046;44.702;10.622;2022-07-05T10:28:17;31.70;82.90
23731;DHT22;12046;44.702;10.622;2022-07-05T10:30:49;31.70;82.50
23731;DHT22;12046;44.702;10.622;2022-07-05T10:33:22;31.70;83.80
23731;DHT22;12046;44.702;10.622;2022-07-05T10:35:53;31.80;82.70
23731;DHT22;12046;44.702;10.622;2022-07-05T10:38:19;31.80;83.30
23731;DHT22;12046;44.702;10.622;2022-07-05T10:40:50;31.90;84.70
23731;DHT22;12046;44.702;10.622;2022-07-05T10:43:17;31.90;83.50
23731;DHT22;12046;44.702;10.622;2022-07-05T10:45:47;32.00;82.10
23731;DHT22;12046;44.702;10.622;2022-07-05T10:48:24;32.00;83.20
23731;DHT22;12046;44.702;10.622;2022-07-05T10:56:12;32.30;81.90
23731;DHT22;12046;44.702;10.622;2022-07-05T10:58:43;32.30;82.00
23731;DHT22;12046;44.702;10.622;2022-07-05T11:06:28;32.40;81.10
23731;DHT22;12046;44.702;10.622;2022-07-05T11:11:36;32.60;79.60
23731;DHT22;12046;44.702;10.622;2022-07-05T11:20:10;32.80;79.70
23731;DHT22;12046;44.702;10.622;2022-07-05T11:22:42;32.90;78.80
23731;DHT22;12046;44.702;10.622;2022-07-05T11:25:31;33.00;76.80
23731;DHT22;12046;44.702;10.622;2022-07-05T11:28:17;33.00;78.40
23731;DHT22;12046;44.702;10.622;2022-07-05T11:33:31;33.10;81.00
23731;DHT22;12046;44.702;10.622;2022-07-05T11:35:58;32.90;80.20
23731;DHT22;12046;44.702;10.622;2022-07-05T11:38:24;32.80;80.90
23731;DHT22;12046;44.702;10.622;2022-07-05T11:40:50;32.80;82.30
23731;DHT22;12046;44.702;10.622;2022-07-05T11:43:25;32.90;82.50
23731;DHT22;12046;44.702;10.622;2022-07-05T11:45:59;33.00;80.20
23731;DHT22;12046;44.702;10.622;2022-07-05T11:48:29;33.00;79.80
23731;DHT22;12046;44.702;10.622;2022-07-05T11:50:55;33.00;77.90
23731;DHT22;12046;44.702;10.622;2022-07-05T11:53:29;33.20;76.70
23731;DHT22;12046;44.702;10.622;2022-07-05T11:55:59;33.30;75.50
23731;DHT22;12046;44.702;10.622;2022-07-05T11:58:33;33.40;73.00
23731;DHT22;12046;44.702;10.622;2022-07-05T12:01:00;33.50;73.90
23731;DHT22;12046;44.702;10.622;2022-07-05T12:03:27;33.60;73.80
23731;DHT22;12046;44.702;10.622;2022-07-05T12:05:54;33.70;74.50
23731;DHT22;12046;44.702;10.622;2022-07-05T12:08:24;33.70;73.10
23731;DHT22;12046;44.702;10.622;2022-07-05T12:10:51;33.70;74.10
23731;DHT22;12046;44.702;10.622;2022-07-05T12:13:46;33.80;72.50
23731;DHT22;12046;44.702;10.622;2022-07-05T12:16:13;33.70;70.40
23731;DHT22;12046;44.702;10.622;2022-07-05T12:18:56;33.70;70.20
23731;DHT22;12046;44.702;10.622;2022-07-05T12:21:25;33.70;71.50
23731;DHT22;12046;44.702;10.622;2022-07-05T12:23:52;33.70;71.30
23731;DHT22;12046;44.702;10.622;2022-07-05T12:26:19;33.80;71.10
23731;DHT22;12046;44.702;10.622;2022-07-05T12:28:47;33.80;71.30
23731;DHT22;12046;44.702;10.622;2022-07-05T12:31:17;33.90;71.50
23731;DHT22;12046;44.702;10.622;2022-07-05T12:33:44;33.90;71.40
23731;DHT22;12046;44.702;10.622;2022-07-05T12:36:15;34.00;71.60
23731;DHT22;12046;44.702;10.622;2022-07-05T12:38:43;34.10;71.20
23731;DHT22;12046;44.702;10.622;2022-07-05T12:41:09;34.10;70.90
23731;DHT22;12046;44.702;10.622;2022-07-05T12:44:08;34.10;70.20
23731;DHT22;12046;44.702;10.622;2022-07-05T12:46:39;34.10;69.90
23731;DHT22;12046;44.702;10.622;2022-07-05T12:49:06;34.20;69.00
23731;DHT22;12046;44.702;10.622;2022-07-05T12:51:36;34.20;69.40
23731;DHT22;12046;44.702;10.622;2022-07-05T12:54:03;34.30;68.80
23731;DHT22;12046;44.702;10.622;2022-07-05T12:56:54;34.30;69.50
23731;DHT22;12046;44.702;10.622;2022-07-05T12:59:40;34.30;67.50
23731;DHT22;12046;44.702;10.622;2022-07-05T13:02:09;34.10;64.90
23731;DHT22;12046;44.702;10.622;2022-07-05T13:04:35;34.00;67.90
23731;DHT22;12046;44.702;10.622;2022-07-05T13:07:03;34.20;68.40
23731;DHT22;12046;44.702;10.622;2022-07-05T13:14:45;33.90;67.80
23731;DHT22;12046;44.702;10.622;2022-07-05T13:17:14;34.10;67.60
23731;DHT22;12046;44.702;10.622;2022-07-05T13:19:42;34.20;66.90
23731;DHT22;12046;44.702;10.622;2022-07-05T13:22:09;34.30;67.70
23731;DHT22;12046;44.702;10.622;2022-07-05T13:24:35;34.40;68.40
23731;DHT22;12046;44.702;10.622;2022-07-05T13:27:02;34.20;67.60
23731;DHT22;12046;44.702;10.622;2022-07-05T13:29:29;34.30;68.00
23731;DHT22;12046;44.702;10.622;2022-07-05T13:31:55;34.40;66.80
23731;DHT22;12046;44.702;10.622;2022-07-05T13:34:21;34.50;66.40
23731;DHT22;12046;44.702;10.622;2022-07-05T13:36:56;34.70;65.20
23731;DHT22;12046;44.702;10.622;2022-07-05T13:39:23;34.70;65.80
23731;DHT22;12046;44.702;10.622;2022-07-05T13:41:51;34.70;66.40
23731;DHT22;12046;44.702;10.622;2022-07-05T13:44:17;34.70;66.00
23731;DHT22;12046;44.702;10.622;2022-07-05T13:46:43;34.80;65.50
23731;DHT22;12046;44.702;10.622;2022-07-05T13:49:10;34.90;65.30
23731;DHT22;12046;44.702;10.622;2022-07-05T13:51:36;34.90;64.90
23731;DHT22;12046;44.702;10.622;2022-07-05T13:54:02;34.90;65.50
23731;DHT22;12046;44.702;10.622;2022-07-05T13:56:29;34.90;66.40
23731;DHT22;12046;44.702;10.622;2022-07-05T13:58:55;34.90;65.60
23731;DHT22;12046;44.702;10.622;2022-07-05T14:01:22;34.90;65.50
23731;DHT22;12046;44.702;10.622;2022-07-05T14:03:58;35.00;65.30
23731;DHT22;12046;44.702;10.622;2022-07-05T14:06:25;35.00;67.10
23731;DHT22;12046;44.702;10.622;2022-07-05T14:08:51;35.00;67.50
23731;DHT22;12046;44.702;10.622;2022-07-05T14:11:17;35.00;67.70
23731;DHT22;12046;44.702;10.622;2022-07-05T14:13:43;35.00;67.00
23731;DHT22;12046;44.702;10.622;2022-07-05T14:16:09;34.80;65.90
23731;DHT22;12046;44.702;10.622;2022-07-05T14:18:36;34.50;66.10
23731;DHT22;12046;44.702;10.622;2022-07-05T14:21:02;34.30;65.10
23731;DHT22;12046;44.702;10.622;2022-07-05T14:23:28;34.50;63.80
23731;DHT22;12046;44.702;10.622;2022-07-05T14:25:55;34.70;63.90
23731;DHT22;12046;44.702;10.622;2022-07-05T14:28:21;34.80;63.50
23731;DHT22;12046;44.702;10.622;2022-07-05T14:30:47;34.90;63.30
23731;DHT22;12046;44.702;10.622;2022-07-05T14:33:14;34.90;63.80
23731;DHT22;12046;44.702;10.622;2022-07-05T14:35:40;35.00;63.50
23731;DHT22;12046;44.702;10.622;2022-07-05T14:38:07;35.00;64.80
23731;DHT22;12046;44.702;10.622;2022-07-05T14:40:34;35.00;63.80
23731;DHT22;12046;44.702;10.622;2022-07-05T14:43:01;35.00;65.10
23731;DHT22;12046;44.702;10.622;2022-07-05T14:45:27;35.20;64.70
23731;DHT22;12046;44.702;10.622;2022-07-05T14:47:54;35.30;64.00
23731;DHT22;12046;44.702;10.622;2022-07-05T14:50:20;35.40;63.60
23731;DHT22;12046;44.702;10.622;2022-07-05T14:52:48;35.50;64.00
23731;DHT22;12046;44.702;10.622;2022-07-05T14:55:15;35.50;64.10
23731;DHT22;12046;44.702;10.622;2022-07-05T14:57:41;35.50;64.50
23731;DHT22;12046;44.702;10.622;2022-07-05T15:00:10;35.30;63.90
23731;DHT22;12046;44.702;10.622;2022-07-05T15:02:37;35.20;63.80
23731;DHT22;12046;44.702;10.622;2022-07-05T15:05:04;35.10;63.20
23731;DHT22;12046;44.702;10.622;2022-07-05T15:07:31;34.90;64.20
23731;DHT22;12046;44.702;10.622;2022-07-05T15:09:57;34.80;64.90
23731;DHT22;12046;44.702;10.622;2022-07-05T15:12:23;34.90;65.50
23731;DHT22;12046;44.702;10.622;2022-07-05T15:14:49;35.00;65.00
23731;DHT22;12046;44.702;10.622;2022-07-05T15:17:15;35.10;65.00
23731;DHT22;12046;44.702;10.622;2022-07-05T15:19:41;35.10;64.50
23731;DHT22;12046;44.702;10.622;2022-07-05T15:22:07;35.10;65.00
23731;DHT22;12046;44.702;10.622;2022-07-05T15:24:34;35.10;64.80
23731;DHT22;12046;44.702;10.622;2022-07-05T15:27:00;35.10;64.50
23731;DHT22;12046;44.702;10.622;2022-07-05T15:29:26;35.10;64.80
23731;DHT22;12046;44.702;10.622;2022-07-05T15:31:54;35.00;64.10
23731;DHT22;12046;44.702;10.622;2022-07-05T15:34:21;35.10;64.50
23731;DHT22;12046;44.702;10.622;2022-07-05T15:36:47;35.10;64.90
23731;DHT22;12046;44.702;10.622;2022-07-05T15:39:16;35.10;64.50
23731;DHT22;12046;44.702;10.622;2022-07-05T15:41:41;35.10;65.00
23731;DHT22;12046;44.702;10.622;2022-07-05T15:44:07;35.00;64.10
23731;DHT22;12046;44.702;10.622;2022-07-05T15:46:34;35.00;64.40
23731;DHT22;12046;44.702;10.622;2022-07-05T15:49:18;35.00;64.00